SWR1LE LSZH-CYUL
Flight info
| Callsign | SWR1LE |
|---|---|
| Flight time | N/A |
| Altitude | 34000 |
| Route | VEBIT T10 TORPA DCT REKLA DCT RLP DCT ROTSI DCT KOTUN DCT AMAXA DCT VESAN DCT RATUK DCT SOVAT/N0456F360 L613 SANDY DCT OKSAW DCT TEWXI DCT VATRY/N0460F380 DCT TORLU DCT DOGAL/M080F390 NATA ALLRY/N0461F400 N482C MIILS DCT TIBOS ROCKT3 |
| Aircraft | A343/H-SDE2E3FGHIJ4J5M1RWXY/LB1D1 |
Departure
| Time | 2026-05-01 10:40 |
|---|---|
| Airport | Zürich Airport (LSZH) |
Arrival
| Time | N/A |
|---|---|
| Airport | Montreal / Pierre Elliott Trudeau International Airport (CYUL) |
| Time | Latitude | Longitude | Altitude | Speed | Heading |
|---|---|---|---|---|---|
| 2026-05-01 09:35 | 47.46192 | 8.55285 | 1351 ft | 0 kts | 186° |
| 2026-05-01 10:28 | 47.46225 | 8.55290 | 1406 ft | 4 kts | 188° |
| 2026-05-01 10:28 | 47.46249 | 8.55296 | 1409 ft | 2 kts | 193° |
| 2026-05-01 10:29 | 47.46271 | 8.55341 | 1409 ft | 4 kts | 290° |
| 2026-05-01 10:29 | 47.46265 | 8.55372 | 1410 ft | 0 kts | 276° |
| 2026-05-01 10:32 | 47.46265 | 8.55371 | 1410 ft | 0 kts | 276° |
| 2026-05-01 10:32 | 47.46266 | 8.55357 | 1409 ft | 2 kts | 276° |
| 2026-05-01 10:32 | 47.46272 | 8.55267 | 1406 ft | 6 kts | 275° |
| 2026-05-01 10:33 | 47.46283 | 8.55100 | 1406 ft | 10 kts | 275° |
| 2026-05-01 10:33 | 47.46298 | 8.54864 | 1399 ft | 13 kts | 275° |
| 2026-05-01 10:34 | 47.46329 | 8.54739 | 1386 ft | 14 kts | 321° |
| 2026-05-01 10:34 | 47.46411 | 8.54672 | 1386 ft | 13 kts | 334° |
| 2026-05-01 10:34 | 47.46487 | 8.54620 | 1399 ft | 11 kts | 335° |
| 2026-05-01 10:35 | 47.46618 | 8.54530 | 1400 ft | 11 kts | 335° |
| 2026-05-01 10:35 | 47.46691 | 8.54480 | 1384 ft | 12 kts | 335° |
| 2026-05-01 10:35 | 47.46774 | 8.54426 | 1384 ft | 14 kts | 338° |
| 2026-05-01 10:35 | 47.46866 | 8.54372 | 1383 ft | 14 kts | 339° |
| 2026-05-01 10:36 | 47.47025 | 8.54264 | 1384 ft | 11 kts | 334° |
| 2026-05-01 10:36 | 47.47094 | 8.54215 | 1385 ft | 10 kts | 334° |
| 2026-05-01 10:36 | 47.47157 | 8.54170 | 1387 ft | 9 kts | 335° |
| 2026-05-01 10:37 | 47.47215 | 8.54133 | 1389 ft | 9 kts | 337° |
| 2026-05-01 10:37 | 47.47375 | 8.54028 | 1405 ft | 17 kts | 334° |
| 2026-05-01 10:37 | 47.47487 | 8.53946 | 1404 ft | 19 kts | 333° |
| 2026-05-01 10:38 | 47.47605 | 8.53864 | 1408 ft | 17 kts | 335° |
| 2026-05-01 10:38 | 47.47692 | 8.53797 | 1408 ft | 12 kts | 317° |
| 2026-05-01 10:38 | 47.47693 | 8.53715 | 1410 ft | 7 kts | 244° |
| 2026-05-01 10:38 | 47.47658 | 8.53672 | 1412 ft | 9 kts | 208° |
| 2026-05-01 10:39 | 47.47547 | 8.53626 | 1411 ft | 24 kts | 173° |
| 2026-05-01 10:39 | 47.47288 | 8.53787 | 1403 ft | 66 kts | 155° |
| 2026-05-01 10:39 | 47.46670 | 8.54217 | 1380 ft | 129 kts | 155° |
| 2026-05-01 10:39 | 47.45682 | 8.54898 | 1430 ft | 177 kts | 155° |
| 2026-05-01 10:40 | 47.44558 | 8.55622 | 2165 ft | 176 kts | 156° |
| 2026-05-01 10:40 | 47.43425 | 8.56379 | 2890 ft | 182 kts | 146° |
| 2026-05-01 10:40 | 47.42741 | 8.57915 | 3376 ft | 189 kts | 102° |
| 2026-05-01 10:40 | 47.42864 | 8.59902 | 3747 ft | 205 kts | 71° |
| 2026-05-01 10:41 | 47.43610 | 8.61769 | 4125 ft | 221 kts | 50° |
| 2026-05-01 10:41 | 47.44750 | 8.63462 | 4536 ft | 242 kts | 41° |
| 2026-05-01 10:41 | 47.47799 | 8.65896 | 5681 ft | 262 kts | 1° |
| 2026-05-01 10:42 | 47.49525 | 8.65068 | 6388 ft | 270 kts | 319° |
| 2026-05-01 10:42 | 47.50566 | 8.62762 | 6981 ft | 277 kts | 283° |
| 2026-05-01 10:42 | 47.50535 | 8.59934 | 7573 ft | 281 kts | 251° |
| 2026-05-01 10:42 | 47.49581 | 8.57459 | 8362 ft | 276 kts | 227° |
| 2026-05-01 10:43 | 47.48323 | 8.55300 | 9088 ft | 280 kts | 228° |
| 2026-05-01 10:43 | 47.47072 | 8.53047 | 9725 ft | 287 kts | 233° |
| 2026-05-01 10:43 | 47.46088 | 8.50438 | 10348 ft | 295 kts | 245° |
| 2026-05-01 10:43 | 47.45161 | 8.47723 | 10731 ft | 307 kts | 237° |
| 2026-05-01 10:44 | 47.43941 | 8.45034 | 11044 ft | 323 kts | 233° |
| 2026-05-01 10:44 | 47.42612 | 8.42258 | 11310 ft | 339 kts | 233° |
| 2026-05-01 10:44 | 47.41204 | 8.39309 | 11602 ft | 354 kts | 234° |
| 2026-05-01 10:44 | 47.39764 | 8.36276 | 11928 ft | 367 kts | 234° |
| 2026-05-01 10:45 | 47.38411 | 8.33032 | 12397 ft | 375 kts | 240° |
| 2026-05-01 10:45 | 47.37175 | 8.29612 | 13024 ft | 379 kts | 242° |
| 2026-05-01 10:45 | 47.35950 | 8.26156 | 13661 ft | 383 kts | 242° |
| 2026-05-01 10:45 | 47.34710 | 8.22654 | 14255 ft | 387 kts | 242° |
| 2026-05-01 10:46 | 47.33457 | 8.19122 | 14798 ft | 391 kts | 242° |
| 2026-05-01 10:46 | 47.32190 | 8.15556 | 15376 ft | 394 kts | 241° |
| 2026-05-01 10:46 | 47.30910 | 8.11972 | 15942 ft | 397 kts | 241° |
| 2026-05-01 10:46 | 47.29626 | 8.08360 | 16497 ft | 401 kts | 241° |
| 2026-05-01 10:47 | 47.28349 | 8.04686 | 17050 ft | 404 kts | 244° |
| 2026-05-01 10:47 | 47.27439 | 8.00757 | 17589 ft | 409 kts | 258° |
| 2026-05-01 10:47 | 47.27242 | 7.96568 | 18153 ft | 412 kts | 271° |
| 2026-05-01 10:47 | 47.27454 | 7.92345 | 18678 ft | 416 kts | 276° |
| 2026-05-01 10:48 | 47.27839 | 7.88112 | 19168 ft | 419 kts | 278° |
| 2026-05-01 10:48 | 47.28301 | 7.83857 | 19665 ft | 421 kts | 279° |
| 2026-05-01 10:48 | 47.28776 | 7.79594 | 20163 ft | 423 kts | 279° |
| 2026-05-01 10:48 | 47.29239 | 7.75301 | 20660 ft | 426 kts | 279° |
| 2026-05-01 10:49 | 47.29683 | 7.70978 | 21126 ft | 428 kts | 279° |
| 2026-05-01 10:49 | 47.29967 | 7.68099 | 21452 ft | 430 kts | 278° |
| 2026-05-01 10:49 | 47.30711 | 7.62359 | 22069 ft | 432 kts | 286° |
| 2026-05-01 10:49 | 47.31247 | 7.59473 | 22382 ft | 433 kts | 287° |
| 2026-05-01 10:50 | 47.32107 | 7.55200 | 22841 ft | 435 kts | 288° |
| 2026-05-01 10:50 | 47.33017 | 7.50932 | 23282 ft | 438 kts | 289° |
| 2026-05-01 10:50 | 47.33953 | 7.46653 | 23689 ft | 440 kts | 289° |
| 2026-05-01 10:50 | 47.34902 | 7.42340 | 24018 ft | 444 kts | 289° |
| 2026-05-01 10:51 | 47.35859 | 7.37985 | 24367 ft | 447 kts | 289° |
| 2026-05-01 10:51 | 47.36810 | 7.33625 | 24758 ft | 448 kts | 289° |
| 2026-05-01 10:51 | 47.37762 | 7.29234 | 25102 ft | 450 kts | 289° |
| 2026-05-01 10:51 | 47.38711 | 7.24836 | 25436 ft | 452 kts | 289° |
| 2026-05-01 10:52 | 47.39972 | 7.18956 | 25871 ft | 455 kts | 288° |
| 2026-05-01 10:52 | 47.40570 | 7.15921 | 26080 ft | 457 kts | 285° |
| 2026-05-01 10:52 | 47.41315 | 7.11357 | 26391 ft | 459 kts | 284° |
| 2026-05-01 10:52 | 47.42022 | 7.06759 | 26706 ft | 461 kts | 283° |
| 2026-05-01 10:53 | 47.42714 | 7.02106 | 26928 ft | 465 kts | 283° |
| 2026-05-01 10:53 | 47.43396 | 6.97432 | 27229 ft | 467 kts | 283° |
| 2026-05-01 10:53 | 47.44075 | 6.92734 | 27549 ft | 468 kts | 283° |
| 2026-05-01 10:53 | 47.44757 | 6.88015 | 27849 ft | 470 kts | 282° |
| 2026-05-01 10:54 | 47.45441 | 6.83286 | 28141 ft | 472 kts | 283° |
| 2026-05-01 10:54 | 47.46126 | 6.78535 | 28415 ft | 474 kts | 282° |
| 2026-05-01 10:54 | 47.46814 | 6.73763 | 28683 ft | 476 kts | 283° |
| 2026-05-01 10:54 | 47.47504 | 6.68966 | 28958 ft | 478 kts | 282° |
| 2026-05-01 10:55 | 47.48034 | 6.64109 | 29210 ft | 480 kts | 277° |
| 2026-05-01 10:55 | 47.48442 | 6.59207 | 29472 ft | 482 kts | 276° |
| 2026-05-01 10:55 | 47.48816 | 6.54276 | 29719 ft | 484 kts | 276° |
| 2026-05-01 10:55 | 47.49172 | 6.49324 | 29979 ft | 485 kts | 276° |
| 2026-05-01 10:56 | 47.49520 | 6.44353 | 30217 ft | 487 kts | 276° |
| 2026-05-01 10:56 | 47.49861 | 6.39426 | 30472 ft | 488 kts | 276° |
| 2026-05-01 10:56 | 47.50206 | 6.34449 | 30771 ft | 487 kts | 276° |
| 2026-05-01 10:56 | 47.50550 | 6.29471 | 31062 ft | 486 kts | 276° |
| 2026-05-01 10:57 | 47.50894 | 6.24503 | 31341 ft | 486 kts | 275° |
| 2026-05-01 10:57 | 47.51238 | 6.19531 | 31593 ft | 486 kts | 275° |
| 2026-05-01 10:57 | 47.51579 | 6.14570 | 31860 ft | 485 kts | 275° |
| 2026-05-01 10:57 | 47.51916 | 6.09625 | 32147 ft | 484 kts | 275° |
| 2026-05-01 10:58 | 47.52253 | 6.04662 | 32437 ft | 483 kts | 275° |
| 2026-05-01 10:58 | 47.52586 | 5.99718 | 32723 ft | 482 kts | 275° |
| 2026-05-01 10:58 | 47.52936 | 5.94795 | 32959 ft | 482 kts | 277° |
| 2026-05-01 10:58 | 47.53606 | 5.89940 | 33227 ft | 482 kts | 285° |
| 2026-05-01 10:59 | 47.54760 | 5.85288 | 33505 ft | 482 kts | 295° |
| 2026-05-01 10:59 | 47.58528 | 5.77020 | 33705 ft | 489 kts | 310° |
| 2026-05-01 10:59 | 47.60787 | 5.73251 | 33984 ft | 488 kts | 312° |
| 2026-05-01 11:00 | 47.63081 | 5.69562 | 34222 ft | 487 kts | 313° |
| 2026-05-01 11:00 | 47.67719 | 5.62194 | 34265 ft | 486 kts | 313° |
| 2026-05-01 11:01 | 47.72285 | 5.54869 | 34264 ft | 482 kts | 312° |
| 2026-05-01 11:01 | 47.76819 | 5.47519 | 34273 ft | 482 kts | 312° |
| 2026-05-01 11:02 | 47.81361 | 5.40115 | 34267 ft | 486 kts | 311° |
| 2026-05-01 11:02 | 47.85918 | 5.32667 | 34269 ft | 487 kts | 311° |
| 2026-05-01 11:03 | 47.90480 | 5.25193 | 34264 ft | 487 kts | 311° |
| 2026-05-01 11:03 | 47.95032 | 5.17714 | 34261 ft | 486 kts | 311° |
| 2026-05-01 11:04 | 47.99562 | 5.10247 | 34264 ft | 485 kts | 311° |
| 2026-05-01 11:04 | 48.04073 | 5.02791 | 34255 ft | 488 kts | 311° |
| 2026-05-01 11:05 | 48.08630 | 4.95236 | 34256 ft | 490 kts | 311° |
| 2026-05-01 11:05 | 48.13186 | 4.87665 | 34252 ft | 489 kts | 311° |
| 2026-05-01 11:06 | 48.17727 | 4.80096 | 34251 ft | 488 kts | 311° |
| 2026-05-01 11:06 | 48.22259 | 4.72522 | 34252 ft | 487 kts | 311° |
| 2026-05-01 11:07 | 48.29062 | 4.61108 | 34247 ft | 492 kts | 311° |
| 2026-05-01 11:07 | 48.33620 | 4.53435 | 34238 ft | 492 kts | 310° |
| 2026-05-01 11:08 | 48.38169 | 4.45752 | 34249 ft | 491 kts | 310° |
| 2026-05-01 11:09 | 48.44957 | 4.34247 | 34246 ft | 490 kts | 310° |
| 2026-05-01 11:09 | 48.49481 | 4.26551 | 34255 ft | 493 kts | 310° |
| 2026-05-01 11:10 | 48.56318 | 4.14878 | 34256 ft | 496 kts | 310° |
| 2026-05-01 11:10 | 48.60871 | 4.07077 | 34262 ft | 494 kts | 310° |
| 2026-05-01 11:11 | 48.65400 | 3.99292 | 34261 ft | 492 kts | 310° |
| 2026-05-01 11:11 | 48.69892 | 3.91550 | 34258 ft | 493 kts | 310° |
| 2026-05-01 11:12 | 48.74920 | 3.84521 | 34256 ft | 494 kts | 322° |
| 2026-05-01 11:12 | 48.80447 | 3.78316 | 34252 ft | 494 kts | 323° |
| 2026-05-01 11:13 | 48.86040 | 3.72234 | 34254 ft | 495 kts | 323° |
| 2026-05-01 11:13 | 48.91637 | 3.66137 | 34248 ft | 495 kts | 323° |
| 2026-05-01 11:14 | 48.97214 | 3.60015 | 34249 ft | 495 kts | 323° |
| 2026-05-01 11:14 | 49.02787 | 3.53866 | 34248 ft | 495 kts | 323° |
| 2026-05-01 11:15 | 49.08354 | 3.47705 | 34250 ft | 495 kts | 323° |
| 2026-05-01 11:15 | 49.13933 | 3.41513 | 34249 ft | 496 kts | 323° |
| 2026-05-01 11:16 | 49.19512 | 3.35304 | 34236 ft | 496 kts | 323° |
| 2026-05-01 11:16 | 49.25086 | 3.29085 | 34237 ft | 496 kts | 323° |
| 2026-05-01 11:17 | 49.30642 | 3.22868 | 34240 ft | 494 kts | 323° |
| 2026-05-01 11:17 | 49.36177 | 3.16654 | 34235 ft | 493 kts | 323° |
| 2026-05-01 11:18 | 49.41704 | 3.10434 | 34234 ft | 493 kts | 323° |
| 2026-05-01 11:18 | 49.47212 | 3.04216 | 34236 ft | 496 kts | 323° |
| 2026-05-01 11:19 | 49.52764 | 2.97932 | 34222 ft | 495 kts | 322° |
| 2026-05-01 11:19 | 49.58295 | 2.91653 | 34221 ft | 493 kts | 322° |
| 2026-05-01 11:20 | 49.63818 | 2.85365 | 34232 ft | 493 kts | 322° |
| 2026-05-01 11:20 | 49.69337 | 2.79063 | 34221 ft | 493 kts | 322° |
| 2026-05-01 11:21 | 49.74852 | 2.72748 | 34228 ft | 492 kts | 322° |
| 2026-05-01 11:21 | 49.80354 | 2.66465 | 34220 ft | 492 kts | 323° |
| 2026-05-01 11:22 | 49.85928 | 2.60296 | 34221 ft | 493 kts | 323° |
| 2026-05-01 11:22 | 49.91513 | 2.54138 | 34223 ft | 493 kts | 323° |
| 2026-05-01 11:23 | 49.97095 | 2.47933 | 34242 ft | 492 kts | 323° |
| 2026-05-01 11:23 | 50.02639 | 2.41733 | 34237 ft | 490 kts | 323° |
| 2026-05-01 11:24 | 50.08164 | 2.35531 | 34231 ft | 490 kts | 323° |
| 2026-05-01 11:25 | 50.16457 | 2.26191 | 34222 ft | 491 kts | 323° |
| 2026-05-01 11:25 | 50.24771 | 2.16786 | 34220 ft | 492 kts | 322° |
| 2026-05-01 11:26 | 50.33066 | 2.07363 | 34219 ft | 491 kts | 322° |
| 2026-05-01 11:27 | 50.38552 | 2.01091 | 34215 ft | 491 kts | 321° |
| 2026-05-01 11:27 | 50.43761 | 1.94198 | 34213 ft | 489 kts | 316° |
| 2026-05-01 11:28 | 50.48803 | 1.87030 | 34210 ft | 488 kts | 316° |
| 2026-05-01 11:28 | 50.53877 | 1.79922 | 34212 ft | 490 kts | 316° |
| 2026-05-01 11:29 | 50.61573 | 1.69323 | 34211 ft | 490 kts | 317° |
| 2026-05-01 11:30 | 50.69272 | 1.58718 | 34216 ft | 489 kts | 316° |
| 2026-05-01 11:30 | 50.74385 | 1.51631 | 34217 ft | 489 kts | 316° |
| 2026-05-01 11:31 | 50.79498 | 1.44524 | 34219 ft | 489 kts | 316° |
| 2026-05-01 11:31 | 50.84607 | 1.37409 | 34220 ft | 489 kts | 316° |
| 2026-05-01 11:32 | 50.89701 | 1.30287 | 34217 ft | 489 kts | 316° |
| 2026-05-01 11:32 | 50.94793 | 1.23146 | 34216 ft | 488 kts | 316° |
| 2026-05-01 11:33 | 50.99878 | 1.15997 | 34214 ft | 488 kts | 316° |
| 2026-05-01 11:33 | 51.04759 | 1.08537 | 34213 ft | 485 kts | 306° |
| 2026-05-01 11:34 | 51.08188 | 0.99460 | 34213 ft | 477 kts | 290° |
| 2026-05-01 11:34 | 51.10710 | 0.89713 | 34192 ft | 476 kts | 288° |
| 2026-05-01 11:35 | 51.13080 | 0.79887 | 34162 ft | 476 kts | 287° |
| 2026-05-01 11:35 | 51.15447 | 0.70041 | 34134 ft | 476 kts | 287° |
| 2026-05-01 11:36 | 51.17826 | 0.60205 | 34110 ft | 476 kts | 287° |
| 2026-05-01 11:36 | 51.20207 | 0.50365 | 34102 ft | 476 kts | 287° |
| 2026-05-01 11:37 | 51.22179 | 0.42184 | 34103 ft | 475 kts | 287° |
| 2026-05-01 11:37 | 51.24543 | 0.32334 | 34104 ft | 475 kts | 287° |
| 2026-05-01 11:38 | 51.26894 | 0.22485 | 34122 ft | 475 kts | 287° |
| 2026-05-01 11:38 | 51.29235 | 0.12640 | 34142 ft | 475 kts | 287° |
| 2026-05-01 11:39 | 51.31572 | 0.02762 | 34161 ft | 475 kts | 287° |
| 2026-05-01 11:39 | 51.33897 | -0.07108 | 34184 ft | 473 kts | 287° |
| 2026-05-01 11:40 | 51.36204 | -0.16941 | 34180 ft | 472 kts | 287° |
| 2026-05-01 11:40 | 51.38498 | -0.26769 | 34181 ft | 472 kts | 287° |
| 2026-05-01 11:41 | 51.40786 | -0.36622 | 34184 ft | 472 kts | 287° |
| 2026-05-01 11:41 | 51.43066 | -0.46478 | 34184 ft | 472 kts | 287° |
| 2026-05-01 11:42 | 51.45334 | -0.56335 | 34184 ft | 471 kts | 287° |
| 2026-05-01 11:42 | 51.47596 | -0.66203 | 34181 ft | 471 kts | 287° |
| 2026-05-01 11:43 | 51.49849 | -0.76081 | 34176 ft | 472 kts | 287° |
| 2026-05-01 11:43 | 51.52093 | -0.85967 | 34166 ft | 471 kts | 287° |
| 2026-05-01 11:44 | 51.55364 | -1.00459 | 34159 ft | 471 kts | 287° |
| 2026-05-01 11:44 | 51.57583 | -1.10346 | 34160 ft | 470 kts | 287° |
| 2026-05-01 11:45 | 51.59791 | -1.20233 | 34162 ft | 469 kts | 287° |